createdAt,value
2023-03-06T00:00:36.007Z,82.42
2023-03-06T00:03:03.201Z,82.21
2023-03-06T00:05:30.668Z,82.99
2023-03-06T00:07:57.557Z,82.73
2023-03-06T00:10:27.300Z,82.06
2023-03-06T00:12:59.420Z,82.89
2023-03-06T00:15:27.405Z,82.88
2023-03-06T00:17:55.449Z,82.63
2023-03-06T00:20:24.127Z,82.33
2023-03-06T00:22:51.525Z,82.65
2023-03-06T00:25:21.415Z,83.11
2023-03-06T00:27:49.374Z,81.90
2023-03-06T00:30:22.276Z,82.48
2023-03-06T00:32:52.611Z,82.30
2023-03-06T00:35:19.852Z,82.79
2023-03-06T00:37:46.951Z,82.80
2023-03-06T00:40:16.079Z,82.76
2023-03-06T00:42:43.062Z,82.73
2023-03-06T00:45:10.755Z,82.57
2023-03-06T00:47:38.051Z,82.40
2023-03-06T00:50:06.041Z,82.25
2023-03-06T00:52:33.476Z,82.82
2023-03-06T00:55:00.606Z,82.24
2023-03-06T00:57:27.529Z,81.75
2023-03-06T00:59:54.432Z,82.70
2023-03-06T01:02:22.318Z,82.42
2023-03-06T01:04:49.427Z,82.83
2023-03-06T01:07:16.770Z,82.30
2023-03-06T01:09:43.553Z,82.55
2023-03-06T01:12:10.569Z,82.90
2023-03-06T01:14:37.442Z,82.80
2023-03-06T01:17:05.032Z,82.03
2023-03-06T01:19:31.969Z,81.89
2023-03-06T01:21:58.921Z,82.19
2023-03-06T01:24:26.118Z,82.33
2023-03-06T01:26:53.096Z,82.04
2023-03-06T01:29:21.097Z,82.24
2023-03-06T01:31:48.208Z,82.28
2023-03-06T01:34:15.038Z,83.26
2023-03-06T01:36:42.142Z,83.73
2023-03-06T01:39:09.165Z,83.22
2023-03-06T01:41:36.885Z,83.79
2023-03-06T01:44:03.992Z,83.44
2023-03-06T01:46:35.525Z,83.13
2023-03-06T01:49:26.522Z,82.98
2023-03-06T01:52:02.830Z,82.98
2023-03-06T01:54:38.161Z,82.92
2023-03-06T01:57:33.948Z,82.87
2023-03-06T02:00:17.459Z,82.80
2023-03-06T02:02:54.078Z,83.61
2023-03-06T02:05:22.113Z,84.88
2023-03-06T02:07:50.954Z,84.83
2023-03-06T02:10:19.524Z,84.91
2023-03-06T02:12:47.662Z,85.22
2023-03-06T02:15:17.386Z,85.15
2023-03-06T02:17:46.785Z,85.42
2023-03-06T02:20:26.987Z,84.57
2023-03-06T02:23:28.063Z,85.39
2023-03-06T02:25:55.377Z,84.61
2023-03-06T02:28:23.724Z,85.36
2023-03-06T02:30:54.391Z,85.27
2023-03-06T02:33:25.699Z,84.90
2023-03-06T02:36:06.818Z,84.45
2023-03-06T02:39:03.767Z,84.19
2023-03-06T02:41:30.694Z,83.40
2023-03-06T02:43:57.661Z,83.19
2023-03-06T02:46:24.589Z,83.34
2023-03-06T02:48:51.563Z,83.75
2023-03-06T02:51:19.180Z,84.16
2023-03-06T02:53:46.161Z,83.65
2023-03-06T02:56:13.291Z,83.37
2023-03-06T02:58:40.268Z,83.29
2023-03-06T03:01:08.084Z,83.56
2023-03-06T03:03:35.052Z,83.75
2023-03-06T03:06:05.193Z,83.84
2023-03-06T03:08:32.951Z,84.43
2023-03-06T03:11:00.504Z,84.08
2023-03-06T03:13:27.792Z,84.05
2023-03-06T03:16:09.124Z,84.05
2023-03-06T03:18:37.282Z,84.21
2023-03-06T03:21:11.716Z,84.25
2023-03-06T03:23:38.934Z,83.71
2023-03-06T03:26:08.603Z,84.92
2023-03-06T03:28:35.412Z,85.39
2023-03-06T03:31:08.252Z,85.85
2023-03-06T03:33:36.107Z,85.23
2023-03-06T03:36:05.606Z,84.40
2023-03-06T03:38:33.573Z,84.84
2023-03-06T03:41:04.105Z,83.04
2023-03-06T03:43:32.176Z,83.69
2023-03-06T03:45:59.328Z,83.94
2023-03-06T03:48:26.422Z,84.44
2023-03-06T03:50:53.345Z,84.51
2023-03-06T03:53:20.452Z,84.31
2023-03-06T03:55:48.543Z,85.38
2023-03-06T03:58:15.965Z,86.09
2023-03-06T04:00:42.869Z,86.29
2023-03-06T04:03:09.718Z,84.97
2023-03-06T04:05:37.031Z,86.10
2023-03-06T04:08:04.448Z,86.19
2023-03-06T04:10:32.119Z,85.70
2023-03-06T04:13:03.675Z,85.31
2023-03-06T04:15:30.569Z,86.23
2023-03-06T04:17:57.513Z,86.30
2023-03-06T04:20:24.937Z,86.20
2023-03-06T04:22:51.773Z,86.10
2023-03-06T04:25:18.883Z,85.35
2023-03-06T04:27:46.152Z,86.12
2023-03-06T04:30:13.323Z,86.46
2023-03-06T04:32:40.308Z,86.85
2023-03-06T04:35:07.659Z,86.60
2023-03-06T04:37:34.802Z,87.01
2023-03-06T04:40:01.789Z,86.50
2023-03-06T04:42:29.111Z,87.11
2023-03-06T04:44:56.171Z,86.98
2023-03-06T04:47:23.098Z,87.13
2023-03-06T04:49:50.327Z,87.17
2023-03-06T04:52:17.279Z,87.42
2023-03-06T04:54:44.171Z,87.09
2023-03-06T04:57:11.371Z,86.63
2023-03-06T04:59:39.299Z,87.03
2023-03-06T05:02:06.394Z,86.88
2023-03-06T05:04:33.344Z,87.17
2023-03-06T05:07:00.158Z,87.58
2023-03-06T05:09:27.083Z,87.37
2023-03-06T05:11:54.054Z,87.47
2023-03-06T05:14:21.136Z,88.37
2023-03-06T05:16:48.050Z,87.86
2023-03-06T05:19:15.532Z,87.93
2023-03-06T05:21:42.500Z,87.72
2023-03-06T05:24:09.964Z,87.24
2023-03-06T05:26:37.149Z,87.98
2023-03-06T05:29:06.179Z,88.00
2023-03-06T05:31:33.546Z,86.96
2023-03-06T05:34:00.912Z,87.65
2023-03-06T05:36:28.946Z,87.48
2023-03-06T05:38:56.289Z,89.36
2023-03-06T05:41:26.098Z,89.18
2023-03-06T05:43:54.476Z,89.33
2023-03-06T05:46:21.645Z,89.44
2023-03-06T05:48:48.469Z,89.43
2023-03-06T05:51:15.618Z,89.36
2023-03-06T05:53:44.941Z,89.14
2023-03-06T05:56:11.979Z,88.60
2023-03-06T05:58:39.327Z,88.44
2023-03-06T06:01:11.498Z,87.99
2023-03-06T06:03:41.586Z,88.08
2023-03-06T06:06:10.279Z,87.63
2023-03-06T06:08:37.172Z,87.55
2023-03-06T06:11:08.580Z,86.91
2023-03-06T06:13:36.403Z,86.29
2023-03-06T06:16:19.127Z,86.39
2023-03-06T06:18:46.245Z,86.62
2023-03-06T06:21:17.817Z,86.74
2023-03-06T06:23:44.946Z,86.65
2023-03-06T06:26:14.424Z,86.45
2023-03-06T06:28:41.389Z,86.11
2023-03-06T06:31:13.152Z,86.90
2023-03-06T06:33:41.128Z,86.32
2023-03-06T06:36:21.420Z,85.91
2023-03-06T06:38:49.712Z,85.97
2023-03-06T06:44:08.924Z,85.03
2023-03-06T06:49:23.589Z,84.68
2023-03-06T06:51:50.690Z,84.75
2023-03-06T06:54:18.981Z,84.87
2023-03-06T06:56:48.709Z,84.93
2023-03-06T06:59:17.391Z,85.01
2023-03-06T07:01:46.182Z,85.09
2023-03-06T07:04:15.542Z,84.15
2023-03-06T07:06:43.102Z,83.81
2023-03-06T07:09:10.247Z,83.51
2023-03-06T07:11:38.664Z,84.30
2023-03-06T07:14:06.121Z,82.76
2023-03-06T07:16:33.173Z,82.73
2023-03-06T07:19:00.142Z,82.10
2023-03-06T07:21:27.082Z,81.48
2023-03-06T07:23:54.657Z,82.27
2023-03-06T07:26:23.584Z,81.59
2023-03-06T07:28:53.828Z,81.32
2023-03-06T07:31:27.113Z,81.42
2023-03-06T07:33:55.012Z,81.54
2023-03-06T07:36:24.026Z,80.36
2023-03-06T07:38:50.860Z,79.96
2023-03-06T07:41:22.169Z,77.98
2023-03-06T07:43:50.423Z,78.69
2023-03-06T07:46:17.566Z,77.79
2023-03-06T07:48:44.893Z,76.57
2023-03-06T07:51:20.964Z,77.20
2023-03-06T07:53:49.318Z,77.41
2023-03-06T07:56:16.302Z,76.68
2023-03-06T07:58:47.017Z,76.88
2023-03-06T08:01:17.206Z,76.87
2023-03-06T08:03:44.488Z,75.48
2023-03-06T08:06:14.392Z,75.97
2023-03-06T08:08:43.757Z,76.12
2023-03-06T08:11:12.469Z,74.38
2023-03-06T08:13:42.888Z,75.29
2023-03-06T08:16:10.438Z,74.60
2023-03-06T08:18:40.061Z,74.61
2023-03-06T08:21:16.153Z,74.89
2023-03-06T08:23:44.223Z,74.85
2023-03-06T08:26:16.488Z,74.69
2023-03-06T08:28:43.634Z,73.62
2023-03-06T08:31:24.721Z,73.28
2023-03-06T08:33:51.904Z,73.16
2023-03-06T08:36:19.493Z,71.89
2023-03-06T08:38:46.771Z,70.11
2023-03-06T08:41:16.485Z,68.88
2023-03-06T08:43:43.848Z,69.47
2023-03-06T08:46:12.457Z,68.64
2023-03-06T08:48:39.369Z,67.72
2023-03-06T08:51:08.247Z,65.95
2023-03-06T08:53:43.165Z,64.71
2023-03-06T08:56:16.685Z,62.36
2023-03-06T08:58:43.640Z,63.22
2023-03-06T09:01:15.824Z,63.91
2023-03-06T09:03:44.291Z,63.23
2023-03-06T09:06:11.679Z,59.83
2023-03-06T09:08:38.774Z,58.90
2023-03-06T09:11:05.937Z,57.50
2023-03-06T09:13:33.063Z,57.47
2023-03-06T09:16:00.154Z,58.06
2023-03-06T09:18:26.866Z,60.06
2023-03-06T09:20:56.960Z,60.52
2023-03-06T09:23:25.023Z,61.66
2023-03-06T09:25:56.686Z,61.56
2023-03-06T09:28:24.686Z,60.79
2023-03-06T09:30:52.503Z,59.16
2023-03-06T09:33:20.045Z,56.80
2023-03-06T09:36:00.324Z,54.22
2023-03-06T09:38:29.313Z,45.59
2023-03-06T09:41:01.959Z,37.94
2023-03-06T09:43:35.767Z,34.04
2023-03-06T09:46:40.067Z,34.18
2023-03-06T09:49:44.893Z,32.63
2023-03-06T09:52:31.614Z,28.71
2023-03-06T09:55:09.835Z,30.33
2023-03-06T09:57:56.663Z,32.07
2023-03-06T10:00:53.018Z,31.52
2023-03-06T10:03:39.763Z,31.29
2023-03-06T10:06:18.838Z,32.31
2023-03-06T10:09:02.910Z,31.06
2023-03-06T10:11:44.078Z,34.11
2023-03-06T10:14:20.855Z,30.86
2023-03-06T10:16:51.003Z,27.14
2023-03-06T10:19:20.849Z,26.22
2023-03-06T10:22:04.708Z,26.06
2023-03-06T10:24:55.042Z,24.49
2023-03-06T10:27:34.189Z,26.08
2023-03-06T10:30:39.982Z,24.49
2023-03-06T10:33:09.819Z,24.67
2023-03-06T10:35:56.489Z,26.28
2023-03-06T10:38:28.041Z,25.38
2023-03-06T10:41:12.953Z,28.14
2023-03-06T10:43:42.600Z,22.41
2023-03-06T10:46:12.305Z,19.26
2023-03-06T10:48:42.843Z,18.42
2023-03-06T10:51:18.923Z,17.67
2023-03-06T10:53:56.048Z,16.78
2023-03-06T10:56:32.850Z,17.06
2023-03-06T10:59:06.899Z,19.69
2023-03-06T11:01:34.787Z,22.81
2023-03-06T11:04:31.760Z,21.46
2023-03-06T11:07:08.138Z,21.23
2023-03-06T11:09:36.039Z,23.42
2023-03-06T11:12:36.813Z,20.14
2023-03-06T11:15:23.541Z,20.92
2023-03-06T11:18:00.518Z,18.53
2023-03-06T11:20:55.690Z,16.02
2023-03-06T11:23:39.372Z,15.74
2023-03-06T11:26:22.102Z,18.70
2023-03-06T11:29:03.099Z,20.69
2023-03-06T11:31:34.111Z,21.56
2023-03-06T11:34:23.399Z,21.44
2023-03-06T11:36:58.945Z,24.81
2023-03-06T11:39:36.439Z,30.66
2023-03-06T11:42:12.627Z,38.13
2023-03-06T11:45:02.860Z,41.02
2023-03-06T11:47:37.178Z,39.70
2023-03-06T11:50:19.268Z,30.85
2023-03-06T11:52:54.909Z,25.57
2023-03-06T11:56:07.787Z,22.05
2023-03-06T11:59:16.371Z,19.65
2023-03-06T12:02:20.633Z,20.60
2023-03-06T12:05:05.975Z,19.10
2023-03-06T12:07:50.965Z,21.36
2023-03-06T12:10:24.902Z,24.60
2023-03-06T12:13:03.480Z,25.29
2023-03-06T12:16:06.467Z,32.39
2023-03-06T12:19:18.232Z,32.84
2023-03-06T12:21:54.693Z,29.02
2023-03-06T12:24:49.989Z,28.01
2023-03-06T12:27:31.994Z,28.70
2023-03-06T12:30:04.892Z,31.52
2023-03-06T12:32:54.177Z,29.94
2023-03-06T12:35:21.500Z,31.54
2023-03-06T12:38:25.878Z,32.58
2023-03-06T12:41:31.251Z,39.09
2023-03-06T12:44:21.258Z,43.60
2023-03-06T12:46:55.293Z,45.57
2023-03-06T12:49:33.060Z,47.20
2023-03-06T12:52:04.384Z,46.52
2023-03-06T12:54:35.605Z,45.52
2023-03-06T12:57:03.090Z,47.16
2023-03-06T12:59:50.179Z,48.02
2023-03-06T13:02:17.673Z,48.01
2023-03-06T13:04:55.699Z,47.78
2023-03-06T13:07:36.969Z,47.58
2023-03-06T13:10:21.753Z,46.98
2023-03-06T13:12:58.529Z,46.90
2023-03-06T13:16:04.206Z,47.50
2023-03-06T13:18:34.221Z,47.77
2023-03-06T13:21:02.141Z,44.66
2023-03-06T13:23:39.160Z,45.36
2023-03-06T13:26:32.891Z,47.00
2023-03-06T13:28:59.878Z,47.89
2023-03-06T13:31:52.189Z,46.91
2023-03-06T13:34:43.631Z,48.36
2023-03-06T13:37:23.636Z,47.45
2023-03-06T13:39:57.079Z,47.38
2023-03-06T13:42:38.282Z,47.21
2023-03-06T13:45:16.469Z,48.70
2023-03-06T13:50:46.457Z,47.84
2023-03-06T13:53:25.421Z,45.65
2023-03-06T13:56:08.637Z,47.52
2023-03-06T13:58:58.829Z,48.10
2023-03-06T14:02:02.024Z,50.47
2023-03-06T14:04:44.963Z,49.68
2023-03-06T14:07:31.861Z,51.83
2023-03-06T14:10:14.196Z,50.96
2023-03-06T14:12:51.376Z,51.23
2023-03-06T14:15:22.921Z,51.40
2023-03-06T14:18:24.298Z,50.66
2023-03-06T14:21:01.134Z,51.61
2023-03-06T14:23:30.719Z,50.74
2023-03-06T14:26:07.919Z,52.70
2023-03-06T14:28:39.441Z,51.68
2023-03-06T14:31:07.356Z,53.16
2023-03-06T14:33:59.745Z,52.37
2023-03-06T14:36:35.842Z,52.28
2023-03-06T14:39:15.005Z,52.52
2023-03-06T14:41:42.006Z,52.68
2023-03-06T14:44:16.905Z,52.47
2023-03-06T14:46:55.383Z,51.24
2023-03-06T14:49:25.212Z,51.95
2023-03-06T14:51:55.970Z,51.52
2023-03-06T14:54:28.801Z,51.91
2023-03-06T14:57:06.379Z,52.40
2023-03-06T14:59:45.667Z,52.05
2023-03-06T15:02:19.656Z,51.86
2023-03-06T15:04:51.658Z,51.49
2023-03-06T15:07:24.418Z,52.18
2023-03-06T15:09:56.483Z,51.59
2023-03-06T15:12:34.562Z,52.15
2023-03-06T15:15:10.701Z,50.10
2023-03-06T15:17:42.370Z,50.93
2023-03-06T15:20:42.226Z,51.83
2023-03-06T15:23:22.632Z,51.06
2023-03-06T15:25:58.713Z,52.01
2023-03-06T15:28:33.586Z,52.16
2023-03-06T15:31:21.302Z,52.12
2023-03-06T15:34:24.022Z,52.27
2023-03-06T15:36:56.864Z,51.69
2023-03-06T15:39:34.714Z,52.17
2023-03-06T15:42:18.845Z,51.37
2023-03-06T15:45:19.352Z,51.50
2023-03-06T15:47:48.396Z,50.80
2023-03-06T15:50:17.095Z,50.38
2023-03-06T15:52:46.394Z,51.54
2023-03-06T15:55:15.499Z,50.84
2023-03-06T15:57:51.153Z,51.17
2023-03-06T16:00:34.378Z,51.19
2023-03-06T16:03:21.092Z,50.96
2023-03-06T16:05:48.189Z,51.12
2023-03-06T16:08:15.454Z,50.92
2023-03-06T16:10:44.772Z,52.06
2023-03-06T16:13:16.616Z,51.67
2023-03-06T16:15:54.291Z,51.74
2023-03-06T16:18:21.067Z,53.69
2023-03-06T16:20:47.966Z,53.55
2023-03-06T16:23:16.359Z,53.27
2023-03-06T16:25:48.471Z,54.07
2023-03-06T16:28:17.135Z,55.90
2023-03-06T16:30:45.204Z,55.89
2023-03-06T16:33:13.119Z,55.77
2023-03-06T16:35:41.444Z,56.30
2023-03-06T16:38:10.470Z,56.56
2023-03-06T16:40:41.292Z,57.08
2023-03-06T16:43:10.746Z,57.24
2023-03-06T16:45:39.926Z,58.47
2023-03-06T16:48:07.765Z,57.82
2023-03-06T16:50:38.538Z,58.03
2023-03-06T16:53:05.897Z,58.10
2023-03-06T16:55:33.088Z,58.75
2023-03-06T16:58:00.487Z,58.55
2023-03-06T17:00:33.415Z,59.12
2023-03-06T17:03:01.802Z,59.95
2023-03-06T17:05:29.063Z,61.42
2023-03-06T17:07:56.779Z,61.72
2023-03-06T17:10:26.545Z,62.74
2023-03-06T17:12:54.494Z,63.16
2023-03-06T17:15:21.267Z,62.61
2023-03-06T17:17:48.861Z,63.72
2023-03-06T17:20:15.966Z,64.79
2023-03-06T17:22:42.916Z,65.41
2023-03-06T17:25:10.438Z,65.82
2023-03-06T17:27:38.473Z,66.09
2023-03-06T17:30:09.174Z,66.36
2023-03-06T17:32:38.450Z,66.75
2023-03-06T17:35:09.517Z,67.64
2023-03-06T17:37:36.769Z,67.87
2023-03-06T17:40:04.164Z,67.84
2023-03-06T17:42:31.246Z,67.07
2023-03-06T17:44:58.240Z,67.41
2023-03-06T17:47:25.077Z,67.51
2023-03-06T17:49:51.999Z,68.42
2023-03-06T17:52:18.929Z,68.75
2023-03-06T17:54:46.468Z,68.59
2023-03-06T17:57:13.499Z,68.87
2023-03-06T17:59:41.663Z,69.06
2023-03-06T18:02:10.214Z,69.17
2023-03-06T18:04:37.237Z,68.71
2023-03-06T18:07:04.290Z,69.22
2023-03-06T18:09:31.298Z,68.16
2023-03-06T18:11:59.568Z,68.80
2023-03-06T18:14:26.723Z,69.05
2023-03-06T18:16:53.742Z,68.28
2023-03-06T18:19:20.926Z,69.08
2023-03-06T18:21:48.061Z,68.91
2023-03-06T18:24:14.822Z,69.71
2023-03-06T18:26:46.058Z,71.29
2023-03-06T18:29:13.437Z,70.48
2023-03-06T18:31:42.619Z,70.21
2023-03-06T18:34:13.572Z,70.52
2023-03-06T18:36:42.579Z,70.22
2023-03-06T18:39:12.274Z,70.14
2023-03-06T18:41:39.224Z,70.11
2023-03-06T18:44:06.568Z,69.40
2023-03-06T18:46:38.360Z,69.81
2023-03-06T18:49:08.590Z,70.16
2023-03-06T18:51:35.759Z,70.56
2023-03-06T18:54:05.983Z,70.24
2023-03-06T18:56:34.204Z,69.54
2023-03-06T18:59:05.978Z,69.00
2023-03-06T19:01:33.861Z,68.86
2023-03-06T19:04:04.989Z,69.04
2023-03-06T19:06:31.984Z,67.74
2023-03-06T19:08:59.008Z,68.30
2023-03-06T19:11:26.983Z,68.20
2023-03-06T19:13:54.209Z,69.08
2023-03-06T19:16:26.366Z,68.27
2023-03-06T19:18:56.048Z,68.75
2023-03-06T19:21:29.188Z,67.90
2023-03-06T19:23:56.830Z,68.76
2023-03-06T19:26:24.593Z,68.18
2023-03-06T19:28:53.051Z,66.97
2023-03-06T19:31:25.586Z,66.87
2023-03-06T19:33:57.102Z,66.47
2023-03-06T19:36:27.881Z,66.59
2023-03-06T19:38:58.857Z,66.53
2023-03-06T19:41:27.210Z,66.56
2023-03-06T19:43:56.886Z,65.62
2023-03-06T19:46:24.921Z,65.15
2023-03-06T19:48:57.166Z,65.41
2023-03-06T19:51:25.170Z,66.17
2023-03-06T19:53:52.847Z,66.37
2023-03-06T19:56:26.386Z,66.49
2023-03-06T19:58:53.691Z,66.98
2023-03-06T20:01:23.082Z,66.15
2023-03-06T20:03:51.295Z,65.51
2023-03-06T20:06:19.686Z,65.50
2023-03-06T20:08:47.725Z,65.89
2023-03-06T20:11:19.726Z,66.24
2023-03-06T20:13:47.742Z,65.85
2023-03-06T20:16:16.271Z,66.35
2023-03-06T20:18:43.670Z,66.88
2023-03-06T20:21:10.517Z,67.38
2023-03-06T20:23:37.305Z,68.00
2023-03-06T20:26:06.678Z,67.91
2023-03-06T20:28:39.256Z,68.00
2023-03-06T20:31:18.574Z,68.07
2023-03-06T20:33:47.256Z,68.78
2023-03-06T20:36:20.519Z,69.57
2023-03-06T20:38:47.829Z,69.02
2023-03-06T20:41:23.624Z,68.67
2023-03-06T20:43:50.801Z,68.98
2023-03-06T20:46:18.916Z,68.48
2023-03-06T20:48:48.877Z,69.42
2023-03-06T20:51:20.166Z,68.80
2023-03-06T20:53:48.236Z,68.56
2023-03-06T20:56:18.001Z,68.11
2023-03-06T20:58:45.403Z,68.11
2023-03-06T21:01:19.229Z,67.48
2023-03-06T21:03:46.118Z,68.05
2023-03-06T21:06:13.033Z,67.88
2023-03-06T21:08:40.120Z,66.99
2023-03-06T21:11:07.208Z,68.00
2023-03-06T21:13:34.376Z,68.03
2023-03-06T21:16:10.338Z,67.71
2023-03-06T21:18:37.663Z,68.46
2023-03-06T21:21:08.928Z,68.28
2023-03-06T21:23:35.744Z,68.53
2023-03-06T21:26:03.141Z,69.29
2023-03-06T21:28:30.711Z,69.13
2023-03-06T21:31:03.390Z,68.44
2023-03-06T21:33:30.370Z,69.17
2023-03-06T21:35:57.556Z,68.79
2023-03-06T21:38:25.050Z,68.84
2023-03-06T21:40:52.069Z,69.65
2023-03-06T21:43:19.044Z,68.91
2023-03-06T21:45:47.475Z,69.41
2023-03-06T21:48:18.093Z,68.97
2023-03-06T21:50:45.070Z,69.88
2023-03-06T21:53:12.002Z,69.71
2023-03-06T21:55:43.064Z,69.78
2023-03-06T21:58:10.356Z,69.12
2023-03-06T22:00:38.474Z,69.74
2023-03-06T22:03:05.528Z,69.58
2023-03-06T22:05:32.553Z,69.26
2023-03-06T22:07:59.626Z,69.46
2023-03-06T22:10:26.680Z,69.28
2023-03-06T22:12:53.632Z,68.92
2023-03-06T22:15:21.989Z,69.72
2023-03-06T22:17:49.126Z,69.02
2023-03-06T22:20:16.327Z,69.71
2023-03-06T22:22:44.083Z,70.88
2023-03-06T22:25:12.127Z,71.19
2023-03-06T22:27:39.213Z,72.29
2023-03-06T22:30:07.077Z,73.48
2023-03-06T22:32:34.168Z,75.31
2023-03-06T22:35:01.091Z,76.95
2023-03-06T22:37:27.925Z,77.74
2023-03-06T22:39:56.327Z,79.75
2023-03-06T22:42:23.231Z,80.55
2023-03-06T22:44:49.977Z,81.89
2023-03-06T22:47:16.755Z,83.10
2023-03-06T22:49:43.666Z,83.75
2023-03-06T22:52:10.423Z,84.93
2023-03-06T22:54:40.225Z,85.06
2023-03-06T22:57:07.115Z,85.49
2023-03-06T22:59:47.264Z,85.56
2023-03-06T23:02:14.232Z,85.92
2023-03-06T23:04:41.272Z,86.47
2023-03-06T23:07:09.387Z,86.40
2023-03-06T23:09:41.293Z,87.12
2023-03-06T23:12:09.237Z,87.22
2023-03-06T23:14:36.075Z,87.82
2023-03-06T23:17:02.979Z,88.36
2023-03-06T23:19:29.929Z,87.97
2023-03-06T23:21:56.993Z,88.06
2023-03-06T23:24:24.027Z,88.56
2023-03-06T23:26:51.104Z,87.97
2023-03-06T23:29:18.042Z,88.40
2023-03-06T23:31:45.112Z,88.42
2023-03-06T23:34:11.985Z,88.30
2023-03-06T23:36:38.836Z,89.04
2023-03-06T23:39:05.705Z,88.61
2023-03-06T23:41:32.857Z,88.35
2023-03-06T23:43:59.802Z,89.00
2023-03-06T23:46:26.763Z,88.93
2023-03-06T23:48:53.636Z,89.77
2023-03-06T23:51:22.205Z,89.60
2023-03-06T23:53:55.528Z,89.59
2023-03-06T23:56:23.452Z,89.89
2023-03-06T23:58:50.618Z,89.96
